createdAt,value
2022-09-18T00:01:34.355Z,97102.67
2022-09-18T00:04:37.469Z,97100.84
2022-09-18T00:07:40.347Z,97103.11
2022-09-18T00:10:46.644Z,97104.63
2022-09-18T00:13:50.612Z,97102.05
2022-09-18T00:16:53.548Z,97101.80
2022-09-18T00:19:56.420Z,97100.27
2022-09-18T00:22:59.308Z,97103.98
2022-09-18T00:26:02.692Z,97102.16
2022-09-18T00:29:06.107Z,97100.53
2022-09-18T00:32:08.990Z,97100.63
2022-09-18T00:35:11.882Z,97098.61
2022-09-18T00:38:14.757Z,97099.91
2022-09-18T00:41:19.026Z,97099.63
2022-09-18T00:44:24.645Z,97098.61
2022-09-18T00:47:33.150Z,97103.73
2022-09-18T00:50:35.952Z,97104.38
2022-09-18T00:53:44.450Z,97103.84
2022-09-18T00:56:50.114Z,97103.71
2022-09-18T00:59:54.695Z,97099.59
2022-09-18T01:03:01.926Z,97101.20
2022-09-18T01:06:16.834Z,97103.97
2022-09-18T01:09:28.563Z,97097.56
2022-09-18T01:12:43.593Z,97099.44
2022-09-18T01:16:05.020Z,97099.48
2022-09-18T01:19:28.561Z,97097.02
2022-09-18T01:22:47.669Z,97100.83
2022-09-18T01:26:23.363Z,97100.55
2022-09-18T01:29:43.623Z,97100.37
2022-09-18T01:32:54.014Z,97101.59
2022-09-18T01:36:02.758Z,97103.75
2022-09-18T01:39:21.254Z,97104.35
2022-09-18T01:42:28.512Z,97106.10
2022-09-18T01:45:34.893Z,97104.23
2022-09-18T01:48:57.023Z,97107.33
2022-09-18T01:52:09.416Z,97111.13
2022-09-18T01:55:18.133Z,97108.95
2022-09-18T01:58:24.969Z,97108.13
2022-09-18T02:01:31.237Z,97108.41
2022-09-18T02:04:38.734Z,97112.85
2022-09-18T02:07:56.813Z,97114.30
2022-09-18T02:11:12.499Z,97109.55
2022-09-18T02:14:27.690Z,97107.41
2022-09-18T02:18:05.726Z,97103.89
2022-09-18T02:21:18.491Z,97107.20
2022-09-18T02:24:24.684Z,97108.66
2022-09-18T02:27:28.567Z,97111.47
2022-09-18T02:30:32.843Z,97108.77
2022-09-18T02:33:37.205Z,97110.60
2022-09-18T02:37:06.271Z,97107.54
2022-09-18T02:40:31.176Z,97109.35
2022-09-18T02:43:49.829Z,97110.30
2022-09-18T02:47:23.825Z,97114.04
2022-09-18T02:50:45.007Z,97113.55
2022-09-18T02:53:53.116Z,97117.61
2022-09-18T02:57:09.506Z,97114.23
2022-09-18T03:00:17.073Z,97110.40
2022-09-18T03:03:27.117Z,97109.70
2022-09-18T03:06:33.427Z,97110.81
2022-09-18T03:09:37.347Z,97106.98
2022-09-18T03:12:40.235Z,97111.89
2022-09-18T03:15:43.917Z,97109.86
2022-09-18T03:18:47.429Z,97106.20
2022-09-18T03:21:51.295Z,97112.12
2022-09-18T03:24:54.561Z,97109.46
2022-09-18T03:27:57.631Z,97107.84
2022-09-18T03:31:11.889Z,97107.26
2022-09-18T03:34:14.903Z,97103.70
2022-09-18T03:37:19.998Z,97101.43
2022-09-18T03:40:23.268Z,97099.20
2022-09-18T03:43:27.353Z,97102.45
2022-09-18T03:46:30.567Z,97099.70
2022-09-18T03:49:35.844Z,97097.70
2022-09-18T03:52:39.585Z,97099.52
2022-09-18T03:56:02.748Z,97100.20
2022-09-18T03:59:24.346Z,97100.35
2022-09-18T04:02:49.018Z,97102.01
2022-09-18T04:06:12.326Z,97100.02
2022-09-18T04:09:34.465Z,97095.98
2022-09-18T04:12:37.406Z,97101.41
2022-09-18T04:16:02.327Z,97101.16
2022-09-18T04:19:05.229Z,97104.06
2022-09-18T04:22:08.226Z,97101.61
2022-09-18T04:25:13.341Z,97104.90
2022-09-18T04:28:16.368Z,97108.49
2022-09-18T04:31:21.103Z,97106.38
2022-09-18T04:34:24.230Z,97104.86
2022-09-18T04:37:30.064Z,97102.19
2022-09-18T04:40:33.653Z,97108.84
2022-09-18T04:43:36.649Z,97111.25
2022-09-18T04:46:41.316Z,97110.02
2022-09-18T04:49:44.247Z,97115.04
2022-09-18T04:52:47.205Z,97113.55
2022-09-18T04:55:50.215Z,97114.91
2022-09-18T04:58:53.983Z,97119.52
2022-09-18T05:01:58.847Z,97118.44
2022-09-18T05:05:02.548Z,97113.48
2022-09-18T05:08:09.804Z,97117.62
2022-09-18T05:11:13.093Z,97115.17
2022-09-18T05:14:16.130Z,97115.02
2022-09-18T05:17:21.945Z,97113.86
2022-09-18T05:20:35.768Z,97113.01
2022-09-18T05:23:42.583Z,97110.54
2022-09-18T05:26:46.660Z,97111.55
2022-09-18T05:29:50.633Z,97111.06
2022-09-18T05:32:59.202Z,97111.77
2022-09-18T05:36:04.896Z,97113.17
2022-09-18T05:39:07.852Z,97110.44
2022-09-18T05:42:11.058Z,97107.66
2022-09-18T05:45:15.154Z,97108.73
2022-09-18T05:48:18.196Z,97105.24
2022-09-18T05:51:21.155Z,97110.13
2022-09-18T05:54:24.136Z,97107.73
2022-09-18T05:57:27.573Z,97106.36
2022-09-18T06:00:32.849Z,97104.98
2022-09-18T06:03:39.729Z,97105.06
2022-09-18T06:06:43.148Z,97109.05
2022-09-18T06:09:46.303Z,97113.96
2022-09-18T06:12:49.506Z,97115.44
2022-09-18T06:15:52.547Z,97121.76
2022-09-18T06:19:03.473Z,97124.64
2022-09-18T06:22:06.502Z,97126.08
2022-09-18T06:25:10.442Z,97128.56
2022-09-18T06:28:13.860Z,97126.71
2022-09-18T06:31:16.969Z,97135.35
2022-09-18T06:34:29.366Z,97134.00
2022-09-18T06:37:35.839Z,97134.84
2022-09-18T06:40:54.621Z,97134.92
2022-09-18T06:44:04.318Z,97138.03
2022-09-18T06:47:18.659Z,97136.83
2022-09-18T06:50:23.249Z,97135.98
2022-09-18T06:53:26.752Z,97137.13
2022-09-18T06:56:33.040Z,97137.32
2022-09-18T06:59:37.831Z,97140.54
2022-09-18T07:02:41.980Z,97136.98
2022-09-18T07:06:17.031Z,97137.66
2022-09-18T07:09:22.610Z,97136.52
2022-09-18T07:12:29.406Z,97137.48
2022-09-18T07:15:32.394Z,97133.30
2022-09-18T07:18:35.395Z,97133.02
2022-09-18T07:21:40.177Z,97133.27
2022-09-18T07:24:43.466Z,97136.96
2022-09-18T07:27:46.385Z,97139.28
2022-09-18T07:30:50.068Z,97143.50
2022-09-18T07:33:55.084Z,97144.89
2022-09-18T07:37:01.420Z,97145.98
2022-09-18T07:40:05.652Z,97146.35
2022-09-18T07:43:43.924Z,97146.70
2022-09-18T07:46:47.923Z,97147.77
2022-09-18T07:49:51.241Z,97147.13
2022-09-18T07:52:59.551Z,97151.08
2022-09-18T07:56:12.103Z,97148.81
2022-09-18T07:59:16.819Z,97152.41
2022-09-18T08:02:20.338Z,97154.11
2022-09-18T08:05:23.544Z,97159.70
2022-09-18T08:08:36.182Z,97160.10
2022-09-18T08:11:59.497Z,97157.23
2022-09-18T08:15:08.890Z,97157.27
2022-09-18T08:18:22.060Z,97161.40
2022-09-18T08:21:36.250Z,97161.40
2022-09-18T08:24:44.312Z,97160.77
2022-09-18T08:27:48.010Z,97159.23
2022-09-18T08:30:58.059Z,97156.14
2022-09-18T08:34:02.079Z,97158.03
2022-09-18T08:37:06.788Z,97159.73
2022-09-18T08:40:55.402Z,97167.50
2022-09-18T08:44:10.148Z,97168.23
2022-09-18T08:47:22.643Z,97169.10
2022-09-18T08:50:40.856Z,97168.20
2022-09-18T08:53:54.068Z,97164.02
2022-09-18T08:57:19.781Z,97164.55
2022-09-18T09:00:48.982Z,97161.13
2022-09-18T09:04:24.657Z,97161.80
2022-09-18T09:07:29.456Z,97162.70
2022-09-18T09:10:48.169Z,97166.15
2022-09-18T09:14:34.323Z,97159.52
2022-09-18T09:18:15.477Z,97160.11
2022-09-18T09:21:23.195Z,97160.48
2022-09-18T09:24:32.126Z,97162.27
2022-09-18T09:27:52.723Z,97167.20
2022-09-18T09:31:28.447Z,97171.98
2022-09-18T09:34:57.405Z,97171.58
2022-09-18T09:38:30.303Z,97171.70
2022-09-18T09:41:49.632Z,97172.53
2022-09-18T09:45:02.679Z,97172.81
2022-09-18T09:48:26.556Z,97171.41
2022-09-18T09:51:49.204Z,97167.98
2022-09-18T09:54:57.231Z,97171.88
2022-09-18T09:58:30.776Z,97177.55
2022-09-18T10:01:58.157Z,97178.52
2022-09-18T10:05:11.168Z,97181.82
2022-09-18T10:08:43.060Z,97184.44
2022-09-18T10:12:10.325Z,97186.48
2022-09-18T10:15:19.633Z,97194.65
2022-09-18T10:18:27.866Z,97200.80
2022-09-18T10:21:36.260Z,97198.13
2022-09-18T10:24:53.868Z,97201.10
2022-09-18T10:27:59.192Z,97197.19
2022-09-18T10:31:10.714Z,97204.02
2022-09-18T10:34:49.918Z,97202.58
2022-09-18T10:37:56.621Z,97201.95
2022-09-18T10:41:29.314Z,97200.05
2022-09-18T10:44:39.823Z,97197.36
2022-09-18T10:47:50.173Z,97200.58
2022-09-18T10:50:54.288Z,97199.22
2022-09-18T10:54:16.167Z,97198.91
2022-09-18T10:58:02.154Z,97198.16
2022-09-18T11:01:08.345Z,97202.96
2022-09-18T11:04:17.642Z,97207.16
2022-09-18T11:07:25.844Z,97206.41
2022-09-18T11:10:34.344Z,97203.80
2022-09-18T11:14:05.991Z,97203.77
2022-09-18T11:17:24.531Z,97209.36
2022-09-18T11:20:30.452Z,97204.63
2022-09-18T11:23:46.171Z,97202.29
2022-09-18T11:26:55.292Z,97199.46
2022-09-18T11:30:14.955Z,97201.33
2022-09-18T11:33:42.248Z,97200.73
2022-09-18T11:36:50.403Z,97195.66
2022-09-18T11:40:01.172Z,97200.19
2022-09-18T11:43:22.591Z,97195.15
2022-09-18T11:46:31.949Z,97193.44
2022-09-18T11:49:46.168Z,97195.42
2022-09-18T11:53:02.270Z,97202.02
2022-09-18T11:56:08.451Z,97208.71
2022-09-18T11:59:31.718Z,97209.96
2022-09-18T12:02:58.055Z,97217.28
2022-09-18T12:06:10.921Z,97216.44
2022-09-18T12:09:21.741Z,97222.65
2022-09-18T12:12:38.348Z,97226.91
2022-09-18T12:15:49.623Z,97224.41
2022-09-18T12:18:59.747Z,97232.38
2022-09-18T12:22:20.344Z,97231.77
2022-09-18T12:25:44.480Z,97235.29
2022-09-18T12:29:17.017Z,97241.55
2022-09-18T12:32:43.104Z,97243.64
2022-09-18T12:36:04.918Z,97248.39
2022-09-18T12:39:22.959Z,97248.87
2022-09-18T12:42:38.880Z,97255.98
2022-09-18T12:46:03.613Z,97253.31
2022-09-18T12:49:12.067Z,97257.10
2022-09-18T12:53:10.336Z,97260.55
2022-09-18T12:56:25.649Z,97259.50
2022-09-18T12:59:50.323Z,97268.08
2022-09-18T13:03:29.230Z,97272.94
2022-09-18T13:06:45.810Z,97273.79
2022-09-18T13:10:02.141Z,97275.26
2022-09-18T13:13:26.616Z,97276.00
2022-09-18T13:16:50.029Z,97277.30
2022-09-18T13:19:59.785Z,97282.65
2022-09-18T13:23:03.195Z,97286.30
2022-09-18T13:26:14.845Z,97292.33
2022-09-18T13:29:51.590Z,97299.58
2022-09-18T13:32:57.194Z,97304.83
2022-09-18T13:36:00.314Z,97303.98
2022-09-18T13:39:27.064Z,97308.54
2022-09-18T13:42:33.665Z,97312.61
2022-09-18T13:45:38.848Z,97313.04
2022-09-18T13:48:45.840Z,97311.77
2022-09-18T13:51:49.478Z,97314.21
2022-09-18T13:55:11.233Z,97317.54
2022-09-18T13:58:46.254Z,97328.66
2022-09-18T14:01:55.224Z,97324.53
2022-09-18T14:05:04.480Z,97328.69
2022-09-18T14:08:21.465Z,97329.52
2022-09-18T14:11:25.243Z,97330.10
2022-09-18T14:14:33.973Z,97330.80
2022-09-18T14:17:38.790Z,97331.96
2022-09-18T14:20:52.426Z,97332.61
2022-09-18T14:24:23.398Z,97335.55
2022-09-18T14:27:38.880Z,97334.05
2022-09-18T14:30:41.742Z,97335.27
2022-09-18T14:33:45.791Z,97334.41
2022-09-18T14:36:55.262Z,97335.23
2022-09-18T14:39:59.087Z,97334.36
2022-09-18T14:43:15.113Z,97336.86
2022-09-18T14:46:20.403Z,97335.20
2022-09-18T14:49:28.106Z,97338.31
2022-09-18T14:52:41.122Z,97335.40
2022-09-18T14:55:49.697Z,97336.29
2022-09-18T14:58:52.942Z,97337.00
2022-09-18T15:02:20.563Z,97339.27
2022-09-18T15:05:23.641Z,97337.30
2022-09-18T15:08:27.054Z,97339.73
2022-09-18T15:11:42.009Z,97335.73
2022-09-18T15:14:53.848Z,97336.35
2022-09-18T15:17:58.351Z,97340.75
2022-09-18T15:21:03.941Z,97338.38
2022-09-18T15:24:16.602Z,97340.73
2022-09-18T15:27:21.606Z,97336.55
2022-09-18T15:30:25.777Z,97338.30
2022-09-18T15:33:29.381Z,97340.66
2022-09-18T15:36:36.272Z,97340.19
2022-09-18T15:39:42.607Z,97338.47
2022-09-18T15:43:07.107Z,97340.94
2022-09-18T15:46:13.150Z,97333.13
2022-09-18T15:49:30.800Z,97330.91
2022-09-18T15:52:41.566Z,97326.31
2022-09-18T15:55:56.516Z,97324.80
2022-09-18T15:59:03.593Z,97326.85
2022-09-18T16:02:29.402Z,97329.29
2022-09-18T16:05:35.587Z,97330.36
2022-09-18T16:08:39.012Z,97335.77
2022-09-18T16:11:46.284Z,97329.76
2022-09-18T16:15:16.495Z,97329.48
2022-09-18T16:18:25.800Z,97333.45
2022-09-18T16:21:30.692Z,97327.07
2022-09-18T16:24:37.966Z,97325.95
2022-09-18T16:27:46.879Z,97330.64
2022-09-18T16:30:49.965Z,97338.29
2022-09-18T16:33:57.210Z,97341.34
2022-09-18T16:37:00.375Z,97343.67
2022-09-18T16:40:05.372Z,97343.55
2022-09-18T16:43:08.421Z,97342.73
2022-09-18T16:46:14.562Z,97345.52
2022-09-18T16:49:20.626Z,97346.55
2022-09-18T16:52:23.727Z,97347.09
2022-09-18T16:55:27.058Z,97344.30
2022-09-18T16:58:30.306Z,97348.02
2022-09-18T17:02:00.101Z,97349.09
2022-09-18T17:05:03.382Z,97345.60
2022-09-18T17:08:06.696Z,97348.16
2022-09-18T17:11:09.924Z,97348.53
2022-09-18T17:14:12.994Z,97348.31
2022-09-18T17:17:16.340Z,97352.92
2022-09-18T17:20:19.543Z,97358.92
2022-09-18T17:23:22.709Z,97361.87
2022-09-18T17:26:28.766Z,97364.16
2022-09-18T17:29:32.404Z,97355.46
2022-09-18T17:32:36.753Z,97360.73
2022-09-18T17:35:39.718Z,97359.50
2022-09-18T17:38:45.274Z,97362.81
2022-09-18T17:41:48.505Z,97364.89
2022-09-18T17:44:52.590Z,97364.27
2022-09-18T17:47:57.598Z,97361.84
2022-09-18T17:51:04.263Z,97360.14
2022-09-18T17:54:08.489Z,97358.42
2022-09-18T17:57:12.144Z,97365.27
2022-09-18T18:00:20.067Z,97363.70
2022-09-18T18:03:25.986Z,97362.92
2022-09-18T18:06:31.319Z,97360.02
2022-09-18T18:09:39.192Z,97361.84
2022-09-18T18:12:43.779Z,97363.34
2022-09-18T18:15:49.850Z,97363.30
2022-09-18T18:19:04.736Z,97361.30
2022-09-18T18:22:08.280Z,97366.92
2022-09-18T18:25:13.253Z,97371.69
2022-09-18T18:28:16.925Z,97378.84
2022-09-18T18:31:19.968Z,97374.70
2022-09-18T18:34:25.751Z,97371.41
2022-09-18T18:37:31.936Z,97368.61
2022-09-18T18:40:40.081Z,97364.23
2022-09-18T18:43:45.433Z,97360.81
2022-09-18T18:46:52.040Z,97363.82
2022-09-18T18:49:57.499Z,97362.95
2022-09-18T18:53:01.345Z,97364.54
2022-09-18T18:56:09.305Z,97366.51
2022-09-18T18:59:21.610Z,97367.23
2022-09-18T19:02:27.849Z,97369.94
2022-09-18T19:05:35.438Z,97365.55
2022-09-18T19:08:39.233Z,97361.48
2022-09-18T19:11:49.945Z,97361.35
2022-09-18T19:14:56.687Z,97354.70
2022-09-18T19:18:02.768Z,97352.30
2022-09-18T19:21:08.121Z,97349.78
2022-09-18T19:24:13.601Z,97350.66
2022-09-18T19:27:19.599Z,97350.57
2022-09-18T19:30:24.628Z,97348.95
2022-09-18T19:33:34.701Z,97347.92
2022-09-18T19:36:38.658Z,97348.58
2022-09-18T19:39:47.445Z,97347.71
2022-09-18T19:42:57.748Z,97343.24
2022-09-18T19:46:02.732Z,97341.00
2022-09-18T19:49:06.413Z,97342.52
2022-09-18T19:52:21.717Z,97344.83
2022-09-18T19:55:25.824Z,97344.96
2022-09-18T19:58:28.808Z,97344.52
2022-09-18T20:01:31.701Z,97343.02
2022-09-18T20:04:38.079Z,97340.25
2022-09-18T20:07:46.935Z,97345.21
2022-09-18T20:10:50.397Z,97344.05
2022-09-18T20:13:53.720Z,97340.93
2022-09-18T20:16:56.777Z,97334.27
2022-09-18T20:19:59.749Z,97332.55
2022-09-18T20:23:03.284Z,97334.61
2022-09-18T20:26:15.744Z,97332.52
2022-09-18T20:29:18.524Z,97327.81
2022-09-18T20:32:21.617Z,97325.91
2022-09-18T20:35:24.664Z,97326.17
2022-09-18T20:38:37.113Z,97329.23
2022-09-18T20:41:40.708Z,97324.48
2022-09-18T20:44:43.647Z,97324.31
2022-09-18T20:47:47.298Z,97326.20
2022-09-18T20:50:50.149Z,97324.65
2022-09-18T20:53:57.292Z,97328.74
2022-09-18T20:57:01.354Z,97323.70
2022-09-18T21:00:06.652Z,97327.63
2022-09-18T21:03:09.536Z,97318.38
2022-09-18T21:06:22.451Z,97317.96
2022-09-18T21:09:28.221Z,97316.64
2022-09-18T21:12:35.199Z,97313.02
2022-09-18T21:15:38.021Z,97311.90
2022-09-18T21:18:41.589Z,97315.58
2022-09-18T21:21:44.474Z,97312.13
2022-09-18T21:24:47.308Z,97316.19
2022-09-18T21:27:53.964Z,97309.58
2022-09-18T21:31:11.799Z,97303.30
2022-09-18T21:34:17.493Z,97308.23
2022-09-18T21:37:20.338Z,97307.13
2022-09-18T21:40:24.195Z,97305.48
2022-09-18T21:43:27.221Z,97311.05
2022-09-18T21:46:30.268Z,97307.77
2022-09-18T21:49:33.797Z,97311.15
2022-09-18T21:52:36.622Z,97312.34
2022-09-18T21:55:39.657Z,97306.84
2022-09-18T21:58:45.112Z,97305.73
2022-09-18T22:01:49.112Z,97308.64
2022-09-18T22:04:55.067Z,97307.02
2022-09-18T22:07:57.930Z,97305.14
2022-09-18T22:11:02.964Z,97307.02
2022-09-18T22:14:09.973Z,97302.93
2022-09-18T22:17:12.814Z,97299.09
2022-09-18T22:20:16.504Z,97292.71
2022-09-18T22:23:19.409Z,97292.33
2022-09-18T22:26:24.949Z,97286.94
2022-09-18T22:29:31.241Z,97298.21
2022-09-18T22:32:34.140Z,97292.16
2022-09-18T22:35:37.016Z,97293.02
2022-09-18T22:38:39.860Z,97291.05
2022-09-18T22:41:43.922Z,97291.52
2022-09-18T22:44:46.794Z,97290.66
2022-09-18T22:47:49.651Z,97292.61
2022-09-18T22:50:52.495Z,97289.09
2022-09-18T22:53:58.975Z,97290.52
2022-09-18T22:57:01.896Z,97296.88
2022-09-18T23:00:05.568Z,97294.05
2022-09-18T23:03:08.465Z,97293.75
2022-09-18T23:06:12.437Z,97300.61
2022-09-18T23:09:16.991Z,97303.05
2022-09-18T23:12:19.829Z,97300.34
2022-09-18T23:15:22.669Z,97302.24
2022-09-18T23:18:25.509Z,97306.42
2022-09-18T23:21:32.119Z,97307.38
2022-09-18T23:24:35.056Z,97311.17
2022-09-18T23:27:37.893Z,97307.80
2022-09-18T23:30:40.758Z,97303.33
2022-09-18T23:33:48.670Z,97298.73
2022-09-18T23:36:54.271Z,97290.11
2022-09-18T23:39:57.133Z,97291.53
2022-09-18T23:42:59.983Z,97292.66
2022-09-18T23:46:05.070Z,97287.65
2022-09-18T23:49:09.410Z,97288.46
2022-09-18T23:52:12.389Z,97287.77
2022-09-18T23:55:15.323Z,97287.23
2022-09-18T23:58:18.836Z,97288.09
